sensor_id;sensor_type;location;lat;lon;timestamp;P1;durP1;ratioP1;P2;durP2;ratioP2
7761;SDS011;3925;48.636;9.516;2023-02-15T00:01:47;20.83;;;16.40;;
7761;SDS011;3925;48.636;9.516;2023-02-15T00:04:15;25.80;;;16.83;;
7761;SDS011;3925;48.636;9.516;2023-02-15T00:06:43;25.13;;;16.47;;
7761;SDS011;3925;48.636;9.516;2023-02-15T00:09:10;21.83;;;15.90;;
7761;SDS011;3925;48.636;9.516;2023-02-15T00:11:38;22.70;;;16.20;;
7761;SDS011;3925;48.636;9.516;2023-02-15T00:14:15;18.47;;;14.93;;
7761;SDS011;3925;48.636;9.516;2023-02-15T00:16:45;19.50;;;15.13;;
7761;SDS011;3925;48.636;9.516;2023-02-15T00:19:14;20.10;;;13.97;;
7761;SDS011;3925;48.636;9.516;2023-02-15T00:21:42;20.70;;;14.57;;
7761;SDS011;3925;48.636;9.516;2023-02-15T00:24:09;21.40;;;13.00;;
7761;SDS011;3925;48.636;9.516;2023-02-15T00:26:38;19.43;;;15.37;;
7761;SDS011;3925;48.636;9.516;2023-02-15T00:29:06;20.17;;;14.20;;
7761;SDS011;3925;48.636;9.516;2023-02-15T00:31:33;18.53;;;13.57;;
7761;SDS011;3925;48.636;9.516;2023-02-15T00:34:02;22.00;;;15.23;;
7761;SDS011;3925;48.636;9.516;2023-02-15T00:36:29;19.70;;;14.53;;
7761;SDS011;3925;48.636;9.516;2023-02-15T00:38:57;17.70;;;14.23;;
7761;SDS011;3925;48.636;9.516;2023-02-15T00:41:24;17.30;;;14.17;;
7761;SDS011;3925;48.636;9.516;2023-02-15T00:43:51;17.63;;;12.97;;
7761;SDS011;3925;48.636;9.516;2023-02-15T00:46:17;19.97;;;13.70;;
7761;SDS011;3925;48.636;9.516;2023-02-15T00:48:44;25.73;;;14.80;;
7761;SDS011;3925;48.636;9.516;2023-02-15T00:51:12;19.27;;;13.07;;
7761;SDS011;3925;48.636;9.516;2023-02-15T00:53:42;16.93;;;13.60;;
7761;SDS011;3925;48.636;9.516;2023-02-15T00:56:09;16.60;;;13.13;;
7761;SDS011;3925;48.636;9.516;2023-02-15T00:58:36;17.40;;;14.20;;
7761;SDS011;3925;48.636;9.516;2023-02-15T01:01:03;14.20;;;12.47;;
7761;SDS011;3925;48.636;9.516;2023-02-15T01:03:32;20.57;;;12.10;;
7761;SDS011;3925;48.636;9.516;2023-02-15T01:05:59;17.83;;;12.73;;
7761;SDS011;3925;48.636;9.516;2023-02-15T01:08:28;17.17;;;13.20;;
7761;SDS011;3925;48.636;9.516;2023-02-15T01:10:55;23.33;;;13.90;;
7761;SDS011;3925;48.636;9.516;2023-02-15T01:13:22;20.40;;;13.90;;
7761;SDS011;3925;48.636;9.516;2023-02-15T01:15:52;19.27;;;14.60;;
7761;SDS011;3925;48.636;9.516;2023-02-15T01:18:20;22.27;;;14.17;;
7761;SDS011;3925;48.636;9.516;2023-02-15T01:20:46;19.00;;;15.00;;
7761;SDS011;3925;48.636;9.516;2023-02-15T01:23:14;18.50;;;13.03;;
7761;SDS011;3925;48.636;9.516;2023-02-15T01:25:43;18.37;;;14.37;;
7761;SDS011;3925;48.636;9.516;2023-02-15T01:28:10;25.63;;;14.93;;
7761;SDS011;3925;48.636;9.516;2023-02-15T01:30:37;21.33;;;14.67;;
7761;SDS011;3925;48.636;9.516;2023-02-15T01:33:04;17.17;;;13.85;;
7761;SDS011;3925;48.636;9.516;2023-02-15T01:35:31;23.50;;;15.33;;
7761;SDS011;3925;48.636;9.516;2023-02-15T01:37:58;19.07;;;15.00;;
7761;SDS011;3925;48.636;9.516;2023-02-15T01:40:25;19.20;;;14.53;;
7761;SDS011;3925;48.636;9.516;2023-02-15T01:42:54;26.13;;;15.30;;
7761;SDS011;3925;48.636;9.516;2023-02-15T01:45:22;22.70;;;14.40;;
7761;SDS011;3925;48.636;9.516;2023-02-15T01:47:52;18.60;;;14.13;;
7761;SDS011;3925;48.636;9.516;2023-02-15T01:50:25;20.27;;;14.10;;
7761;SDS011;3925;48.636;9.516;2023-02-15T01:52:57;20.03;;;15.30;;
7761;SDS011;3925;48.636;9.516;2023-02-15T01:55:29;19.63;;;14.10;;
7761;SDS011;3925;48.636;9.516;2023-02-15T01:58:00;17.23;;;14.10;;
7761;SDS011;3925;48.636;9.516;2023-02-15T02:00:27;15.60;;;11.70;;
7761;SDS011;3925;48.636;9.516;2023-02-15T02:02:54;18.83;;;13.27;;
7761;SDS011;3925;48.636;9.516;2023-02-15T02:05:22;18.17;;;12.10;;
7761;SDS011;3925;48.636;9.516;2023-02-15T02:07:50;19.53;;;13.47;;
7761;SDS011;3925;48.636;9.516;2023-02-15T02:10:20;23.20;;;14.13;;
7761;SDS011;3925;48.636;9.516;2023-02-15T02:12:49;19.43;;;14.50;;
7761;SDS011;3925;48.636;9.516;2023-02-15T02:15:20;15.10;;;12.20;;
7761;SDS011;3925;48.636;9.516;2023-02-15T02:17:54;18.33;;;13.70;;
7761;SDS011;3925;48.636;9.516;2023-02-15T02:20:41;20.10;;;14.90;;
7761;SDS011;3925;48.636;9.516;2023-02-15T02:23:44;20.60;;;14.17;;
7761;SDS011;3925;48.636;9.516;2023-02-15T02:26:40;16.47;;;11.93;;
7761;SDS011;3925;48.636;9.516;2023-02-15T02:29:43;17.93;;;14.17;;
7761;SDS011;3925;48.636;9.516;2023-02-15T02:35:45;16.70;;;13.13;;
7761;SDS011;3925;48.636;9.516;2023-02-15T02:38:19;19.10;;;13.83;;
7761;SDS011;3925;48.636;9.516;2023-02-15T02:40:55;18.87;;;13.53;;
7761;SDS011;3925;48.636;9.516;2023-02-15T02:43:31;17.37;;;13.20;;
7761;SDS011;3925;48.636;9.516;2023-02-15T02:46:05;23.10;;;15.50;;
7761;SDS011;3925;48.636;9.516;2023-02-15T02:48:37;20.67;;;15.33;;
7761;SDS011;3925;48.636;9.516;2023-02-15T02:51:05;20.13;;;14.07;;
7761;SDS011;3925;48.636;9.516;2023-02-15T02:53:32;18.37;;;14.47;;
7761;SDS011;3925;48.636;9.516;2023-02-15T02:56:02;20.80;;;15.67;;
7761;SDS011;3925;48.636;9.516;2023-02-15T02:58:34;22.53;;;15.93;;
7761;SDS011;3925;48.636;9.516;2023-02-15T03:01:08;16.50;;;12.23;;
7761;SDS011;3925;48.636;9.516;2023-02-15T03:03:41;16.27;;;13.10;;
7761;SDS011;3925;48.636;9.516;2023-02-15T03:06:12;20.40;;;14.63;;
7761;SDS011;3925;48.636;9.516;2023-02-15T03:08:43;19.07;;;13.70;;
7761;SDS011;3925;48.636;9.516;2023-02-15T03:11:13;18.67;;;14.70;;
7761;SDS011;3925;48.636;9.516;2023-02-15T03:13:40;15.97;;;12.97;;
7761;SDS011;3925;48.636;9.516;2023-02-15T03:16:09;19.03;;;12.53;;
7761;SDS011;3925;48.636;9.516;2023-02-15T03:18:55;16.63;;;12.50;;
7761;SDS011;3925;48.636;9.516;2023-02-15T03:21:27;17.00;;;13.47;;
7761;SDS011;3925;48.636;9.516;2023-02-15T03:23:59;20.03;;;12.77;;
7761;SDS011;3925;48.636;9.516;2023-02-15T03:26:30;15.73;;;12.93;;
7761;SDS011;3925;48.636;9.516;2023-02-15T03:29:00;16.93;;;13.73;;
7761;SDS011;3925;48.636;9.516;2023-02-15T03:31:30;19.37;;;12.80;;
7761;SDS011;3925;48.636;9.516;2023-02-15T03:34:04;18.10;;;12.90;;
7761;SDS011;3925;48.636;9.516;2023-02-15T03:36:35;17.60;;;13.70;;
7761;SDS011;3925;48.636;9.516;2023-02-15T03:39:10;19.07;;;13.90;;
7761;SDS011;3925;48.636;9.516;2023-02-15T03:41:45;18.27;;;11.93;;
7761;SDS011;3925;48.636;9.516;2023-02-15T03:44:16;19.77;;;13.30;;
7761;SDS011;3925;48.636;9.516;2023-02-15T03:46:47;16.17;;;12.03;;
7761;SDS011;3925;48.636;9.516;2023-02-15T03:49:22;17.30;;;12.37;;
7761;SDS011;3925;48.636;9.516;2023-02-15T03:51:54;21.17;;;13.47;;
7761;SDS011;3925;48.636;9.516;2023-02-15T03:54:23;17.67;;;12.60;;
7761;SDS011;3925;48.636;9.516;2023-02-15T03:57:12;19.27;;;13.03;;
7761;SDS011;3925;48.636;9.516;2023-02-15T03:59:59;16.73;;;12.48;;
7761;SDS011;3925;48.636;9.516;2023-02-15T04:03:00;18.70;;;13.93;;
7761;SDS011;3925;48.636;9.516;2023-02-15T04:05:36;16.83;;;13.43;;
7761;SDS011;3925;48.636;9.516;2023-02-15T04:08:03;22.73;;;14.93;;
7761;SDS011;3925;48.636;9.516;2023-02-15T04:10:30;17.10;;;12.90;;
7761;SDS011;3925;48.636;9.516;2023-02-15T04:13:14;18.30;;;13.23;;
7761;SDS011;3925;48.636;9.516;2023-02-15T04:15:41;18.43;;;13.57;;
7761;SDS011;3925;48.636;9.516;2023-02-15T04:18:26;19.00;;;14.10;;
7761;SDS011;3925;48.636;9.516;2023-02-15T04:21:11;17.65;;;12.77;;
7761;SDS011;3925;48.636;9.516;2023-02-15T04:23:55;20.13;;;13.10;;
7761;SDS011;3925;48.636;9.516;2023-02-15T04:26:40;17.53;;;13.37;;
7761;SDS011;3925;48.636;9.516;2023-02-15T04:29:07;21.00;;;14.20;;
7761;SDS011;3925;48.636;9.516;2023-02-15T04:31:34;20.33;;;13.83;;
7761;SDS011;3925;48.636;9.516;2023-02-15T04:34:02;20.70;;;14.43;;
7761;SDS011;3925;48.636;9.516;2023-02-15T04:36:30;19.88;;;14.88;;
7761;SDS011;3925;48.636;9.516;2023-02-15T04:38:57;20.57;;;14.93;;
7761;SDS011;3925;48.636;9.516;2023-02-15T04:41:24;17.17;;;14.15;;
7761;SDS011;3925;48.636;9.516;2023-02-15T04:43:51;17.02;;;12.73;;
7761;SDS011;3925;48.636;9.516;2023-02-15T04:46:18;17.83;;;11.80;;
7761;SDS011;3925;48.636;9.516;2023-02-15T04:48:44;18.90;;;14.73;;
7761;SDS011;3925;48.636;9.516;2023-02-15T04:51:11;18.40;;;13.65;;
7761;SDS011;3925;48.636;9.516;2023-02-15T04:53:39;20.43;;;13.30;;
7761;SDS011;3925;48.636;9.516;2023-02-15T04:56:06;16.02;;;13.18;;
7761;SDS011;3925;48.636;9.516;2023-02-15T04:58:33;19.57;;;13.57;;
7761;SDS011;3925;48.636;9.516;2023-02-15T05:01:01;17.77;;;13.35;;
7761;SDS011;3925;48.636;9.516;2023-02-15T05:03:29;13.60;;;12.13;;
7761;SDS011;3925;48.636;9.516;2023-02-15T05:05:55;29.00;;;18.87;;
7761;SDS011;3925;48.636;9.516;2023-02-15T05:08:22;35.17;;;21.47;;
7761;SDS011;3925;48.636;9.516;2023-02-15T05:10:50;25.65;;;19.00;;
7761;SDS011;3925;48.636;9.516;2023-02-15T05:13:17;23.07;;;17.73;;
7761;SDS011;3925;48.636;9.516;2023-02-15T05:15:46;23.27;;;16.23;;
7761;SDS011;3925;48.636;9.516;2023-02-15T05:18:14;24.20;;;16.83;;
7761;SDS011;3925;48.636;9.516;2023-02-15T05:20:41;19.80;;;15.60;;
7761;SDS011;3925;48.636;9.516;2023-02-15T05:23:08;23.60;;;16.10;;
7761;SDS011;3925;48.636;9.516;2023-02-15T05:25:35;19.87;;;14.27;;
7761;SDS011;3925;48.636;9.516;2023-02-15T05:28:21;18.67;;;15.00;;
7761;SDS011;3925;48.636;9.516;2023-02-15T05:30:57;19.83;;;14.43;;
7761;SDS011;3925;48.636;9.516;2023-02-15T05:33:28;25.60;;;14.48;;
7761;SDS011;3925;48.636;9.516;2023-02-15T05:35:55;17.75;;;13.70;;
7761;SDS011;3925;48.636;9.516;2023-02-15T05:38:22;20.60;;;14.10;;
7761;SDS011;3925;48.636;9.516;2023-02-15T05:40:49;25.43;;;16.57;;
7761;SDS011;3925;48.636;9.516;2023-02-15T05:43:17;18.13;;;14.50;;
7761;SDS011;3925;48.636;9.516;2023-02-15T05:45:46;20.50;;;14.60;;
7761;SDS011;3925;48.636;9.516;2023-02-15T05:48:13;23.93;;;16.70;;
7761;SDS011;3925;48.636;9.516;2023-02-15T05:50:41;24.13;;;18.70;;
7761;SDS011;3925;48.636;9.516;2023-02-15T05:53:08;22.10;;;16.20;;
7761;SDS011;3925;48.636;9.516;2023-02-15T05:55:36;22.60;;;16.33;;
7761;SDS011;3925;48.636;9.516;2023-02-15T05:58:03;20.23;;;16.23;;
7761;SDS011;3925;48.636;9.516;2023-02-15T06:00:30;19.90;;;15.60;;
7761;SDS011;3925;48.636;9.516;2023-02-15T06:02:58;21.30;;;14.90;;
7761;SDS011;3925;48.636;9.516;2023-02-15T06:05:25;20.70;;;13.70;;
7761;SDS011;3925;48.636;9.516;2023-02-15T06:07:52;20.03;;;14.57;;
7761;SDS011;3925;48.636;9.516;2023-02-15T06:10:19;16.20;;;12.90;;
7761;SDS011;3925;48.636;9.516;2023-02-15T06:12:46;19.00;;;14.10;;
7761;SDS011;3925;48.636;9.516;2023-02-15T06:15:13;15.90;;;12.20;;
7761;SDS011;3925;48.636;9.516;2023-02-15T06:17:40;17.25;;;12.85;;
7761;SDS011;3925;48.636;9.516;2023-02-15T06:20:09;16.10;;;12.40;;
7761;SDS011;3925;48.636;9.516;2023-02-15T06:22:37;17.15;;;13.13;;
7761;SDS011;3925;48.636;9.516;2023-02-15T06:25:04;17.25;;;13.25;;
7761;SDS011;3925;48.636;9.516;2023-02-15T06:27:34;19.70;;;13.90;;
7761;SDS011;3925;48.636;9.516;2023-02-15T06:30:01;19.40;;;14.83;;
7761;SDS011;3925;48.636;9.516;2023-02-15T06:32:29;20.33;;;14.00;;
7761;SDS011;3925;48.636;9.516;2023-02-15T06:34:55;21.77;;;16.20;;
7761;SDS011;3925;48.636;9.516;2023-02-15T06:37:24;23.33;;;16.80;;
7761;SDS011;3925;48.636;9.516;2023-02-15T06:39:51;22.83;;;16.30;;
7761;SDS011;3925;48.636;9.516;2023-02-15T06:42:17;26.50;;;19.47;;
7761;SDS011;3925;48.636;9.516;2023-02-15T06:44:44;23.63;;;16.87;;
7761;SDS011;3925;48.636;9.516;2023-02-15T06:47:11;22.87;;;16.30;;
7761;SDS011;3925;48.636;9.516;2023-02-15T06:49:38;28.27;;;18.70;;
7761;SDS011;3925;48.636;9.516;2023-02-15T06:52:05;25.70;;;19.23;;
7761;SDS011;3925;48.636;9.516;2023-02-15T06:54:34;26.17;;;17.70;;
7761;SDS011;3925;48.636;9.516;2023-02-15T06:57:00;24.90;;;16.20;;
7761;SDS011;3925;48.636;9.516;2023-02-15T06:59:27;18.90;;;15.03;;
7761;SDS011;3925;48.636;9.516;2023-02-15T07:01:54;22.20;;;16.10;;
7761;SDS011;3925;48.636;9.516;2023-02-15T07:04:21;18.20;;;14.37;;
7761;SDS011;3925;48.636;9.516;2023-02-15T07:06:48;22.47;;;15.47;;
7761;SDS011;3925;48.636;9.516;2023-02-15T07:09:15;20.50;;;14.90;;
7761;SDS011;3925;48.636;9.516;2023-02-15T07:11:43;19.40;;;13.37;;
7761;SDS011;3925;48.636;9.516;2023-02-15T07:14:28;18.77;;;13.93;;
7761;SDS011;3925;48.636;9.516;2023-02-15T07:16:54;19.90;;;14.33;;
7761;SDS011;3925;48.636;9.516;2023-02-15T07:19:21;23.20;;;14.90;;
7761;SDS011;3925;48.636;9.516;2023-02-15T07:21:48;26.27;;;16.83;;
7761;SDS011;3925;48.636;9.516;2023-02-15T07:24:16;22.27;;;14.50;;
7761;SDS011;3925;48.636;9.516;2023-02-15T07:26:44;24.77;;;17.00;;
7761;SDS011;3925;48.636;9.516;2023-02-15T07:29:11;25.37;;;17.97;;
7761;SDS011;3925;48.636;9.516;2023-02-15T07:31:38;18.90;;;14.63;;
7761;SDS011;3925;48.636;9.516;2023-02-15T07:34:05;20.53;;;15.33;;
7761;SDS011;3925;48.636;9.516;2023-02-15T07:38:59;26.77;;;16.60;;
7761;SDS011;3925;48.636;9.516;2023-02-15T07:41:26;24.50;;;17.70;;
7761;SDS011;3925;48.636;9.516;2023-02-15T07:43:54;22.30;;;16.57;;
7761;SDS011;3925;48.636;9.516;2023-02-15T07:46:21;22.10;;;16.67;;
7761;SDS011;3925;48.636;9.516;2023-02-15T07:48:48;25.73;;;17.00;;
7761;SDS011;3925;48.636;9.516;2023-02-15T07:51:15;20.43;;;17.23;;
7761;SDS011;3925;48.636;9.516;2023-02-15T07:53:42;20.67;;;16.00;;
7761;SDS011;3925;48.636;9.516;2023-02-15T07:56:10;23.57;;;16.47;;
7761;SDS011;3925;48.636;9.516;2023-02-15T07:58:38;23.63;;;16.70;;
7761;SDS011;3925;48.636;9.516;2023-02-15T08:01:18;21.80;;;16.30;;
7761;SDS011;3925;48.636;9.516;2023-02-15T08:03:47;18.37;;;14.97;;
7761;SDS011;3925;48.636;9.516;2023-02-15T08:06:15;19.33;;;14.90;;
7761;SDS011;3925;48.636;9.516;2023-02-15T08:08:42;19.50;;;15.47;;
7761;SDS011;3925;48.636;9.516;2023-02-15T08:11:14;21.43;;;16.77;;
7761;SDS011;3925;48.636;9.516;2023-02-15T08:13:54;19.63;;;15.30;;
7761;SDS011;3925;48.636;9.516;2023-02-15T08:16:26;18.37;;;15.67;;
7761;SDS011;3925;48.636;9.516;2023-02-15T08:18:55;17.33;;;15.17;;
7761;SDS011;3925;48.636;9.516;2023-02-15T08:21:24;18.17;;;14.80;;
7761;SDS011;3925;48.636;9.516;2023-02-15T08:23:52;18.10;;;16.30;;
7761;SDS011;3925;48.636;9.516;2023-02-15T08:26:19;15.00;;;13.57;;
7761;SDS011;3925;48.636;9.516;2023-02-15T08:28:46;15.60;;;14.20;;
7761;SDS011;3925;48.636;9.516;2023-02-15T08:31:14;16.20;;;14.53;;
7761;SDS011;3925;48.636;9.516;2023-02-15T08:33:45;19.03;;;17.10;;
7761;SDS011;3925;48.636;9.516;2023-02-15T08:36:14;19.67;;;17.63;;
7761;SDS011;3925;48.636;9.516;2023-02-15T08:38:42;19.20;;;17.40;;
7761;SDS011;3925;48.636;9.516;2023-02-15T08:41:13;24.17;;;21.87;;
7761;SDS011;3925;48.636;9.516;2023-02-15T08:43:41;19.83;;;18.03;;
7761;SDS011;3925;48.636;9.516;2023-02-15T08:46:08;23.03;;;18.37;;
7761;SDS011;3925;48.636;9.516;2023-02-15T08:48:37;20.33;;;18.50;;
7761;SDS011;3925;48.636;9.516;2023-02-15T08:51:06;19.93;;;18.10;;
7761;SDS011;3925;48.636;9.516;2023-02-15T08:53:35;19.80;;;18.00;;
7761;SDS011;3925;48.636;9.516;2023-02-15T08:56:03;18.97;;;17.17;;
7761;SDS011;3925;48.636;9.516;2023-02-15T08:58:30;16.97;;;15.53;;
7761;SDS011;3925;48.636;9.516;2023-02-15T09:00:57;15.40;;;14.10;;
7761;SDS011;3925;48.636;9.516;2023-02-15T09:03:24;15.50;;;14.17;;
7761;SDS011;3925;48.636;9.516;2023-02-15T09:05:56;13.43;;;12.07;;
7761;SDS011;3925;48.636;9.516;2023-02-15T09:08:25;14.33;;;13.03;;
7761;SDS011;3925;48.636;9.516;2023-02-15T09:10:52;15.13;;;13.63;;
7761;SDS011;3925;48.636;9.516;2023-02-15T09:13:19;13.93;;;12.73;;
7761;SDS011;3925;48.636;9.516;2023-02-15T09:15:47;15.40;;;14.00;;
7761;SDS011;3925;48.636;9.516;2023-02-15T09:18:13;13.90;;;12.50;;
7761;SDS011;3925;48.636;9.516;2023-02-15T09:20:42;15.33;;;14.00;;
7761;SDS011;3925;48.636;9.516;2023-02-15T09:23:10;14.70;;;13.50;;
7761;SDS011;3925;48.636;9.516;2023-02-15T09:25:38;15.13;;;13.73;;
7761;SDS011;3925;48.636;9.516;2023-02-15T09:28:05;13.83;;;12.63;;
7761;SDS011;3925;48.636;9.516;2023-02-15T09:30:33;14.17;;;12.87;;
7761;SDS011;3925;48.636;9.516;2023-02-15T09:33:00;15.90;;;14.50;;
7761;SDS011;3925;48.636;9.516;2023-02-15T09:35:28;13.77;;;12.57;;
7761;SDS011;3925;48.636;9.516;2023-02-15T09:37:54;14.93;;;13.63;;
7761;SDS011;3925;48.636;9.516;2023-02-15T09:40:21;14.90;;;13.50;;
7761;SDS011;3925;48.636;9.516;2023-02-15T09:42:54;14.10;;;12.90;;
7761;SDS011;3925;48.636;9.516;2023-02-15T09:45:46;15.23;;;13.83;;
7761;SDS011;3925;48.636;9.516;2023-02-15T09:48:41;14.20;;;12.87;;
7761;SDS011;3925;48.636;9.516;2023-02-15T09:54:16;13.47;;;12.37;;
7761;SDS011;3925;48.636;9.516;2023-02-15T09:56:52;13.67;;;12.57;;
7761;SDS011;3925;48.636;9.516;2023-02-15T09:59:26;12.83;;;11.77;;
7761;SDS011;3925;48.636;9.516;2023-02-15T10:02:02;13.53;;;12.30;;
7761;SDS011;3925;48.636;9.516;2023-02-15T10:04:42;14.57;;;13.37;;
7761;SDS011;3925;48.636;9.516;2023-02-15T10:07:22;14.10;;;12.90;;
7761;SDS011;3925;48.636;9.516;2023-02-15T10:10:07;13.33;;;12.20;;
7761;SDS011;3925;48.636;9.516;2023-02-15T10:12:53;13.47;;;12.27;;
7761;SDS011;3925;48.636;9.516;2023-02-15T10:15:34;12.93;;;11.87;;
7761;SDS011;3925;48.636;9.516;2023-02-15T10:18:13;16.93;;;13.27;;
7761;SDS011;3925;48.636;9.516;2023-02-15T10:20:55;13.57;;;12.37;;
7761;SDS011;3925;48.636;9.516;2023-02-15T10:23:32;13.77;;;12.50;;
7761;SDS011;3925;48.636;9.516;2023-02-15T10:26:19;12.73;;;11.50;;
7761;SDS011;3925;48.636;9.516;2023-02-15T10:28:48;11.57;;;10.67;;
7761;SDS011;3925;48.636;9.516;2023-02-15T10:31:25;13.20;;;11.93;;
7761;SDS011;3925;48.636;9.516;2023-02-15T10:34:05;12.53;;;11.50;;
7761;SDS011;3925;48.636;9.516;2023-02-15T10:36:53;11.70;;;10.60;;
7761;SDS011;3925;48.636;9.516;2023-02-15T10:39:46;12.13;;;11.07;;
7761;SDS011;3925;48.636;9.516;2023-02-15T10:42:23;13.87;;;12.67;;
7761;SDS011;3925;48.636;9.516;2023-02-15T10:45:04;12.03;;;11.03;;
7761;SDS011;3925;48.636;9.516;2023-02-15T10:47:44;11.53;;;9.97;;
7761;SDS011;3925;48.636;9.516;2023-02-15T10:50:27;12.27;;;11.07;;
7761;SDS011;3925;48.636;9.516;2023-02-15T10:53:06;12.60;;;11.60;;
7761;SDS011;3925;48.636;9.516;2023-02-15T10:55:50;12.83;;;11.73;;
7761;SDS011;3925;48.636;9.516;2023-02-15T10:58:24;12.20;;;11.00;;
7761;SDS011;3925;48.636;9.516;2023-02-15T11:01:12;13.57;;;12.40;;
7761;SDS011;3925;48.636;9.516;2023-02-15T11:03:59;13.80;;;12.60;;
7761;SDS011;3925;48.636;9.516;2023-02-15T11:06:37;13.77;;;12.57;;
7761;SDS011;3925;48.636;9.516;2023-02-15T11:09:13;14.00;;;12.73;;
7761;SDS011;3925;48.636;9.516;2023-02-15T11:11:44;14.70;;;13.43;;
7761;SDS011;3925;48.636;9.516;2023-02-15T11:14:17;13.20;;;11.90;;
7761;SDS011;3925;48.636;9.516;2023-02-15T11:16:49;14.20;;;13.00;;
7761;SDS011;3925;48.636;9.516;2023-02-15T11:19:21;14.70;;;13.50;;
7761;SDS011;3925;48.636;9.516;2023-02-15T11:21:53;13.63;;;12.53;;
7761;SDS011;3925;48.636;9.516;2023-02-15T11:24:24;13.43;;;12.30;;
7761;SDS011;3925;48.636;9.516;2023-02-15T11:26:55;11.67;;;10.67;;
7761;SDS011;3925;48.636;9.516;2023-02-15T11:29:29;12.73;;;11.73;;
7761;SDS011;3925;48.636;9.516;2023-02-15T11:32:03;13.67;;;12.43;;
7761;SDS011;3925;48.636;9.516;2023-02-15T11:34:45;12.77;;;11.77;;
7761;SDS011;3925;48.636;9.516;2023-02-15T11:37:16;11.83;;;10.80;;
7761;SDS011;3925;48.636;9.516;2023-02-15T11:39:46;13.00;;;11.90;;
7761;SDS011;3925;48.636;9.516;2023-02-15T11:42:17;13.50;;;12.50;;
7761;SDS011;3925;48.636;9.516;2023-02-15T11:44:49;12.27;;;11.10;;
7761;SDS011;3925;48.636;9.516;2023-02-15T11:47:23;13.70;;;12.47;;
7761;SDS011;3925;48.636;9.516;2023-02-15T11:49:52;14.23;;;12.90;;
7761;SDS011;3925;48.636;9.516;2023-02-15T11:52:19;12.83;;;11.73;;
7761;SDS011;3925;48.636;9.516;2023-02-15T11:54:46;13.60;;;12.40;;
7761;SDS011;3925;48.636;9.516;2023-02-15T11:57:17;11.60;;;10.70;;
7761;SDS011;3925;48.636;9.516;2023-02-15T11:59:49;11.50;;;10.60;;
7761;SDS011;3925;48.636;9.516;2023-02-15T12:02:22;13.13;;;12.03;;
7761;SDS011;3925;48.636;9.516;2023-02-15T12:04:53;13.27;;;12.00;;
7761;SDS011;3925;48.636;9.516;2023-02-15T12:07:23;18.27;;;11.67;;
7761;SDS011;3925;48.636;9.516;2023-02-15T12:09:53;13.80;;;12.60;;
7761;SDS011;3925;48.636;9.516;2023-02-15T12:12:26;13.50;;;12.13;;
7761;SDS011;3925;48.636;9.516;2023-02-15T12:14:55;13.77;;;12.57;;
7761;SDS011;3925;48.636;9.516;2023-02-15T12:17:23;12.10;;;11.00;;
7761;SDS011;3925;48.636;9.516;2023-02-15T12:19:54;13.73;;;11.67;;
7761;SDS011;3925;48.636;9.516;2023-02-15T12:22:24;12.77;;;11.47;;
7761;SDS011;3925;48.636;9.516;2023-02-15T12:24:54;13.40;;;12.20;;
7761;SDS011;3925;48.636;9.516;2023-02-15T12:27:23;12.13;;;11.03;;
7761;SDS011;3925;48.636;9.516;2023-02-15T12:29:53;12.27;;;11.27;;
7761;SDS011;3925;48.636;9.516;2023-02-15T12:32:25;11.00;;;10.10;;
7761;SDS011;3925;48.636;9.516;2023-02-15T12:34:56;12.60;;;11.50;;
7761;SDS011;3925;48.636;9.516;2023-02-15T12:37:28;11.03;;;10.03;;
7761;SDS011;3925;48.636;9.516;2023-02-15T12:40:00;13.03;;;11.83;;
7761;SDS011;3925;48.636;9.516;2023-02-15T12:42:40;11.50;;;10.50;;
7761;SDS011;3925;48.636;9.516;2023-02-15T12:45:20;12.97;;;11.67;;
7761;SDS011;3925;48.636;9.516;2023-02-15T12:48:08;12.40;;;11.10;;
7761;SDS011;3925;48.636;9.516;2023-02-15T12:50:42;13.47;;;12.23;;
7761;SDS011;3925;48.636;9.516;2023-02-15T12:53:14;12.77;;;11.47;;
7761;SDS011;3925;48.636;9.516;2023-02-15T12:55:51;12.30;;;11.10;;
7761;SDS011;3925;48.636;9.516;2023-02-15T12:58:20;11.13;;;10.00;;
7761;SDS011;3925;48.636;9.516;2023-02-15T13:01:01;12.50;;;11.20;;
7761;SDS011;3925;48.636;9.516;2023-02-15T13:03:30;13.33;;;11.40;;
7761;SDS011;3925;48.636;9.516;2023-02-15T13:05:59;12.33;;;11.17;;
7761;SDS011;3925;48.636;9.516;2023-02-15T13:08:33;12.10;;;10.77;;
7761;SDS011;3925;48.636;9.516;2023-02-15T13:11:06;12.17;;;10.97;;
7761;SDS011;3925;48.636;9.516;2023-02-15T13:13:35;13.30;;;11.60;;
7761;SDS011;3925;48.636;9.516;2023-02-15T13:16:12;14.03;;;10.70;;
7761;SDS011;3925;48.636;9.516;2023-02-15T13:18:42;12.47;;;11.17;;
7761;SDS011;3925;48.636;9.516;2023-02-15T13:21:13;10.90;;;9.90;;
7761;SDS011;3925;48.636;9.516;2023-02-15T13:23:44;10.33;;;9.30;;
7761;SDS011;3925;48.636;9.516;2023-02-15T13:26:15;12.87;;;11.63;;
7761;SDS011;3925;48.636;9.516;2023-02-15T13:28:45;12.53;;;11.33;;
7761;SDS011;3925;48.636;9.516;2023-02-15T13:31:15;12.20;;;10.43;;
7761;SDS011;3925;48.636;9.516;2023-02-15T13:33:44;12.90;;;10.60;;
7761;SDS011;3925;48.636;9.516;2023-02-15T13:36:16;12.07;;;10.87;;
7761;SDS011;3925;48.636;9.516;2023-02-15T13:38:52;13.37;;;12.07;;
7761;SDS011;3925;48.636;9.516;2023-02-15T13:41:30;12.17;;;10.90;;
7761;SDS011;3925;48.636;9.516;2023-02-15T13:44:01;14.03;;;10.77;;
7761;SDS011;3925;48.636;9.516;2023-02-15T13:46:38;15.97;;;10.50;;
7761;SDS011;3925;48.636;9.516;2023-02-15T13:49:18;14.97;;;11.33;;
7761;SDS011;3925;48.636;9.516;2023-02-15T13:51:57;14.33;;;10.20;;
7761;SDS011;3925;48.636;9.516;2023-02-15T13:57:49;10.27;;;9.27;;
7761;SDS011;3925;48.636;9.516;2023-02-15T14:00:28;9.67;;;8.63;;
7761;SDS011;3925;48.636;9.516;2023-02-15T14:06:13;9.97;;;8.47;;
7761;SDS011;3925;48.636;9.516;2023-02-15T14:08:52;10.27;;;9.27;;
7761;SDS011;3925;48.636;9.516;2023-02-15T14:11:27;10.73;;;8.70;;
7761;SDS011;3925;48.636;9.516;2023-02-15T14:16:58;11.13;;;9.03;;
7761;SDS011;3925;48.636;9.516;2023-02-15T14:19:35;9.30;;;8.23;;
7761;SDS011;3925;48.636;9.516;2023-02-15T14:22:07;10.83;;;9.73;;
7761;SDS011;3925;48.636;9.516;2023-02-15T14:24:50;10.40;;;9.30;;
7761;SDS011;3925;48.636;9.516;2023-02-15T14:27:35;9.70;;;8.80;;
7761;SDS011;3925;48.636;9.516;2023-02-15T14:30:13;9.30;;;8.10;;
7761;SDS011;3925;48.636;9.516;2023-02-15T14:32:46;9.40;;;8.50;;
7761;SDS011;3925;48.636;9.516;2023-02-15T14:35:17;11.87;;;8.77;;
7761;SDS011;3925;48.636;9.516;2023-02-15T14:37:46;10.80;;;9.70;;
7761;SDS011;3925;48.636;9.516;2023-02-15T14:40:26;9.90;;;8.30;;
7761;SDS011;3925;48.636;9.516;2023-02-15T14:43:19;9.10;;;7.70;;
7761;SDS011;3925;48.636;9.516;2023-02-15T14:45:58;11.20;;;8.07;;
7761;SDS011;3925;48.636;9.516;2023-02-15T14:48:36;9.80;;;7.03;;
7761;SDS011;3925;48.636;9.516;2023-02-15T14:51:08;11.60;;;10.13;;
7761;SDS011;3925;48.636;9.516;2023-02-15T14:53:36;9.47;;;8.27;;
7761;SDS011;3925;48.636;9.516;2023-02-15T14:56:16;7.90;;;7.10;;
7761;SDS011;3925;48.636;9.516;2023-02-15T14:58:59;8.27;;;7.47;;
7761;SDS011;3925;48.636;9.516;2023-02-15T15:01:39;9.27;;;8.20;;
7761;SDS011;3925;48.636;9.516;2023-02-15T15:04:08;8.17;;;7.37;;
7761;SDS011;3925;48.636;9.516;2023-02-15T15:06:39;9.20;;;7.13;;
7761;SDS011;3925;48.636;9.516;2023-02-15T15:09:11;8.13;;;7.33;;
7761;SDS011;3925;48.636;9.516;2023-02-15T15:11:44;10.23;;;7.10;;
7761;SDS011;3925;48.636;9.516;2023-02-15T15:26:20;24.83;;;8.40;;
7761;SDS011;3925;48.636;9.516;2023-02-15T15:29:00;10.80;;;7.80;;
7761;SDS011;3925;48.636;9.516;2023-02-15T15:31:30;10.40;;;6.40;;
7761;SDS011;3925;48.636;9.516;2023-02-15T15:34:19;6.80;;;6.13;;
7761;SDS011;3925;48.636;9.516;2023-02-15T15:42:50;11.50;;;6.60;;
7761;SDS011;3925;48.636;9.516;2023-02-15T15:45:37;7.53;;;6.47;;
7761;SDS011;3925;48.636;9.516;2023-02-15T15:48:23;8.47;;;6.37;;
7761;SDS011;3925;48.636;9.516;2023-02-15T15:50:57;8.60;;;6.57;;
7761;SDS011;3925;48.636;9.516;2023-02-15T15:53:26;8.63;;;6.90;;
7761;SDS011;3925;48.636;9.516;2023-02-15T15:55:57;7.77;;;6.50;;